createdAt,value
2022-12-29T00:01:22.391Z,13.50
2022-12-29T00:03:48.978Z,14.06
2022-12-29T00:06:15.394Z,14.18
2022-12-29T00:08:42.114Z,14.18
2022-12-29T00:11:13.258Z,13.98
2022-12-29T00:13:59.043Z,13.90
2022-12-29T00:16:25.696Z,14.45
2022-12-29T00:18:52.367Z,14.31
2022-12-29T00:21:39.167Z,14.54
2022-12-29T00:24:24.493Z,14.83
2022-12-29T00:27:30.518Z,13.92
2022-12-29T00:30:15.784Z,14.54
2022-12-29T00:33:00.575Z,13.57
2022-12-29T00:35:31.414Z,14.19
2022-12-29T00:38:18.413Z,14.68
2022-12-29T00:41:03.259Z,14.34
2022-12-29T00:43:48.401Z,14.45
2022-12-29T00:46:19.608Z,14.12
2022-12-29T00:49:04.977Z,14.60
2022-12-29T00:51:31.259Z,14.29
2022-12-29T00:53:57.562Z,14.15
2022-12-29T00:56:23.997Z,14.81
2022-12-29T00:58:50.533Z,14.38
2022-12-29T01:01:17.036Z,14.80
2022-12-29T01:03:44.501Z,14.97
2022-12-29T01:06:11.607Z,14.90
2022-12-29T01:08:38.564Z,14.56
2022-12-29T01:11:10.218Z,14.62
2022-12-29T01:13:46.813Z,14.64
2022-12-29T01:16:13.304Z,14.73
2022-12-29T01:18:40.097Z,14.94
2022-12-29T01:21:09.864Z,14.64
2022-12-29T01:23:36.420Z,14.89
2022-12-29T01:26:10.174Z,15.30
2022-12-29T01:28:36.661Z,14.71
2022-12-29T01:31:03.034Z,15.26
2022-12-29T01:33:29.382Z,14.54
2022-12-29T01:35:55.884Z,15.38
2022-12-29T01:38:22.292Z,15.20
2022-12-29T01:40:48.650Z,15.27
2022-12-29T01:43:15.929Z,15.53
2022-12-29T01:45:45.081Z,15.03
2022-12-29T01:48:12.780Z,14.99
2022-12-29T01:50:41.604Z,15.35
2022-12-29T01:53:29.438Z,15.30
2022-12-29T01:55:58.110Z,14.98
2022-12-29T01:58:27.916Z,15.26
2022-12-29T02:00:54.315Z,14.77
2022-12-29T02:03:22.687Z,15.26
2022-12-29T02:05:53.704Z,15.45
2022-12-29T02:08:22.613Z,15.22
2022-12-29T02:10:49.069Z,14.96
2022-12-29T02:13:18.550Z,14.96
2022-12-29T02:15:51.129Z,15.16
2022-12-29T02:18:17.401Z,14.84
2022-12-29T02:20:47.666Z,14.86
2022-12-29T02:23:36.027Z,15.41
2022-12-29T02:26:19.880Z,15.31
2022-12-29T02:29:05.395Z,15.48
2022-12-29T02:31:42.051Z,14.90
2022-12-29T02:34:31.885Z,14.91
2022-12-29T02:37:11.360Z,14.76
2022-12-29T02:39:37.878Z,15.36
2022-12-29T02:42:10.504Z,15.10
2022-12-29T02:44:55.956Z,14.80
2022-12-29T02:47:51.687Z,15.52
2022-12-29T02:50:22.076Z,14.91
2022-12-29T02:52:54.016Z,14.99
2022-12-29T02:55:20.488Z,15.13
2022-12-29T02:57:47.322Z,15.33
2022-12-29T03:00:15.245Z,15.04
2022-12-29T03:02:54.574Z,15.33
2022-12-29T03:05:34.864Z,15.28
2022-12-29T03:08:01.426Z,14.64
2022-12-29T03:10:42.298Z,15.35
2022-12-29T03:13:36.571Z,15.39
2022-12-29T03:16:26.163Z,15.46
2022-12-29T03:19:02.114Z,15.05
2022-12-29T03:21:52.701Z,15.41
2022-12-29T03:24:21.503Z,15.11
2022-12-29T03:26:48.491Z,15.42
2022-12-29T03:29:16.246Z,15.30
2022-12-29T03:31:43.563Z,15.38
2022-12-29T03:34:10.771Z,15.29
2022-12-29T03:36:43.404Z,15.35
2022-12-29T03:39:12.883Z,15.53
2022-12-29T03:41:41.079Z,15.54
2022-12-29T03:44:07.680Z,15.89
2022-12-29T03:46:34.296Z,15.61
2022-12-29T03:49:00.921Z,15.49
2022-12-29T03:51:27.384Z,15.47
2022-12-29T03:53:53.870Z,15.72
2022-12-29T03:56:20.364Z,15.69
2022-12-29T03:58:46.857Z,15.82
2022-12-29T04:01:13.167Z,15.71
2022-12-29T04:03:40.816Z,15.63
2022-12-29T04:06:08.542Z,14.83
2022-12-29T04:08:35.002Z,15.59
2022-12-29T04:11:01.499Z,15.65
2022-12-29T04:13:28.662Z,14.61
2022-12-29T04:15:55.041Z,14.87
2022-12-29T04:18:21.531Z,15.56
2022-12-29T04:21:04.541Z,16.01
2022-12-29T04:23:31.794Z,15.11
2022-12-29T04:25:58.140Z,15.43
2022-12-29T04:28:24.500Z,16.06
2022-12-29T04:30:51.068Z,15.22
2022-12-29T04:33:17.536Z,15.64
2022-12-29T04:35:45.863Z,15.42
2022-12-29T04:38:12.237Z,15.48
2022-12-29T04:40:39.628Z,15.14
2022-12-29T04:43:06.430Z,15.67
2022-12-29T04:45:34.015Z,15.21
2022-12-29T04:48:01.068Z,15.42
2022-12-29T04:50:27.510Z,15.21
2022-12-29T04:52:54.170Z,15.40
2022-12-29T04:55:20.573Z,15.47
2022-12-29T04:57:47.170Z,15.43
2022-12-29T05:00:14.559Z,15.69
2022-12-29T05:02:41.243Z,15.39
2022-12-29T05:05:08.030Z,15.52
2022-12-29T05:07:34.907Z,15.23
2022-12-29T05:10:01.338Z,15.89
2022-12-29T05:12:30.912Z,15.66
2022-12-29T05:14:57.554Z,15.75
2022-12-29T05:17:23.940Z,15.47
2022-12-29T05:19:50.194Z,15.47
2022-12-29T05:22:16.687Z,15.13
2022-12-29T05:24:44.888Z,15.13
2022-12-29T05:27:11.176Z,14.92
2022-12-29T05:29:37.502Z,15.04
2022-12-29T05:32:03.931Z,15.13
2022-12-29T05:34:30.574Z,15.54
2022-12-29T05:36:56.931Z,15.67
2022-12-29T05:39:23.660Z,15.39
2022-12-29T05:41:50.373Z,15.54
2022-12-29T05:44:16.927Z,15.26
2022-12-29T05:46:44.745Z,15.87
2022-12-29T05:49:11.442Z,15.31
2022-12-29T05:51:37.779Z,15.65
2022-12-29T05:54:04.201Z,15.83
2022-12-29T05:56:30.551Z,15.58
2022-12-29T05:58:56.983Z,15.97
2022-12-29T06:01:23.456Z,15.94
2022-12-29T06:03:50.172Z,15.69
2022-12-29T06:06:17.213Z,15.40
2022-12-29T06:08:43.504Z,15.33
2022-12-29T06:11:10.270Z,15.13
2022-12-29T06:13:36.765Z,15.64
2022-12-29T06:16:03.431Z,15.86
2022-12-29T06:18:29.985Z,15.52
2022-12-29T06:21:00.542Z,15.60
2022-12-29T06:23:26.859Z,15.80
2022-12-29T06:25:53.171Z,15.21
2022-12-29T06:28:19.456Z,16.33
2022-12-29T06:30:46.542Z,15.75
2022-12-29T06:33:13.530Z,16.05
2022-12-29T06:35:40.804Z,16.09
2022-12-29T06:38:07.264Z,16.16
2022-12-29T06:40:33.724Z,15.98
2022-12-29T06:43:00.131Z,16.25
2022-12-29T06:45:26.502Z,16.54
2022-12-29T06:47:52.833Z,16.24
2022-12-29T06:50:19.275Z,16.18
2022-12-29T06:52:45.623Z,16.13
2022-12-29T06:55:11.930Z,16.11
2022-12-29T06:57:38.227Z,16.23
2022-12-29T07:00:05.852Z,16.33
2022-12-29T07:02:32.360Z,16.24
2022-12-29T07:04:58.865Z,16.21
2022-12-29T07:07:25.343Z,16.50
2022-12-29T07:09:51.713Z,16.14
2022-12-29T07:12:18.051Z,16.03
2022-12-29T07:14:44.495Z,16.43
2022-12-29T07:17:11.154Z,16.03
2022-12-29T07:19:37.755Z,16.04
2022-12-29T07:22:04.079Z,16.60
2022-12-29T07:24:30.945Z,16.07
2022-12-29T07:26:57.422Z,16.06
2022-12-29T07:29:24.027Z,16.13
2022-12-29T07:31:50.367Z,16.61
2022-12-29T07:34:16.787Z,16.24
2022-12-29T07:36:43.618Z,16.68
2022-12-29T07:39:10.088Z,16.17
2022-12-29T07:41:36.366Z,16.36
2022-12-29T07:44:02.645Z,16.46
2022-12-29T07:46:56.278Z,16.09
2022-12-29T07:49:15.344Z,16.31
2022-12-29T07:51:41.698Z,16.56
2022-12-29T07:54:08.034Z,16.34
2022-12-29T07:56:34.375Z,16.42
2022-12-29T07:59:00.736Z,16.71
2022-12-29T08:01:27.194Z,16.54
2022-12-29T08:03:57.345Z,15.61
2022-12-29T08:06:24.158Z,16.63
2022-12-29T08:08:50.567Z,16.53
2022-12-29T08:11:17.082Z,16.52
2022-12-29T08:13:43.507Z,16.27
2022-12-29T08:16:09.967Z,16.93
2022-12-29T08:18:36.560Z,16.73
2022-12-29T08:21:06.607Z,16.45
2022-12-29T08:23:32.986Z,16.68
2022-12-29T08:26:04.031Z,17.11
2022-12-29T08:28:30.736Z,16.98
2022-12-29T08:31:01.284Z,17.24
2022-12-29T08:33:28.010Z,16.57
2022-12-29T08:36:00.781Z,15.85
2022-12-29T08:38:27.982Z,15.79
2022-12-29T08:40:54.633Z,15.60
2022-12-29T08:43:20.989Z,16.22
2022-12-29T08:45:47.383Z,15.89
2022-12-29T08:48:13.813Z,16.14
2022-12-29T08:50:40.286Z,15.98
2022-12-29T08:53:06.783Z,16.24
2022-12-29T08:55:33.158Z,16.57
2022-12-29T08:57:59.598Z,16.08
2022-12-29T09:00:26.491Z,16.16
2022-12-29T09:02:53.217Z,15.90
2022-12-29T09:05:19.870Z,16.50
2022-12-29T09:07:46.416Z,16.38
2022-12-29T09:10:12.986Z,15.57
2022-12-29T09:12:39.426Z,16.10
2022-12-29T09:15:06.768Z,15.95
2022-12-29T09:17:43.380Z,16.05
2022-12-29T09:20:10.492Z,16.01
2022-12-29T09:22:37.238Z,16.21
2022-12-29T09:25:04.052Z,16.07
2022-12-29T09:27:31.072Z,16.37
2022-12-29T09:29:57.585Z,16.36
2022-12-29T09:32:24.952Z,15.94
2022-12-29T09:34:52.963Z,15.46
2022-12-29T09:37:19.435Z,15.96
2022-12-29T09:39:52.133Z,15.37
2022-12-29T09:42:26.207Z,15.68
2022-12-29T09:45:01.612Z,15.77
2022-12-29T09:47:28.727Z,15.31
2022-12-29T09:49:57.429Z,15.59
2022-12-29T09:52:26.864Z,16.17
2022-12-29T09:55:03.828Z,15.50
2022-12-29T09:57:48.365Z,15.73
2022-12-29T10:00:17.893Z,15.80
2022-12-29T10:02:47.473Z,15.68
2022-12-29T10:05:19.051Z,16.11
2022-12-29T10:07:51.665Z,16.15
2022-12-29T10:10:30.387Z,15.59
2022-12-29T10:13:02.950Z,16.76
2022-12-29T10:15:48.116Z,15.95
2022-12-29T10:18:37.676Z,16.74
2022-12-29T10:21:18.606Z,16.51
2022-12-29T10:23:52.344Z,16.33
2022-12-29T10:26:22.698Z,15.87
2022-12-29T10:28:58.706Z,15.74
2022-12-29T10:31:28.225Z,16.44
2022-12-29T10:34:04.248Z,15.64
2022-12-29T10:36:33.607Z,16.07
2022-12-29T10:39:14.075Z,16.27
2022-12-29T10:41:45.659Z,16.37
2022-12-29T10:44:15.206Z,15.36
2022-12-29T10:46:41.571Z,15.09
2022-12-29T10:49:18.025Z,15.40
2022-12-29T10:51:48.859Z,15.50
2022-12-29T10:54:21.315Z,15.58
2022-12-29T10:56:53.061Z,15.98
2022-12-29T10:59:24.347Z,15.65
2022-12-29T11:01:57.128Z,15.57
2022-12-29T11:04:34.394Z,15.48
2022-12-29T11:07:01.748Z,16.54
2022-12-29T11:09:48.688Z,15.69
2022-12-29T11:12:21.477Z,15.40
2022-12-29T11:14:48.269Z,15.34
2022-12-29T11:17:19.331Z,15.71
2022-12-29T11:19:46.151Z,15.68
2022-12-29T11:22:15.301Z,16.48
2022-12-29T11:24:46.866Z,16.14
2022-12-29T11:27:16.703Z,16.59
2022-12-29T11:29:45.513Z,16.72
2022-12-29T11:32:14.133Z,16.12
2022-12-29T11:34:40.907Z,15.75
2022-12-29T11:37:10.824Z,16.35
2022-12-29T11:39:57.836Z,16.05
2022-12-29T11:42:32.003Z,16.05
2022-12-29T11:45:10.505Z,16.48
2022-12-29T11:47:37.726Z,15.67
2022-12-29T11:50:07.488Z,15.52
2022-12-29T11:52:36.115Z,16.55
2022-12-29T11:55:05.485Z,16.07
2022-12-29T11:57:34.547Z,16.27
2022-12-29T12:00:02.481Z,16.52
2022-12-29T12:02:47.847Z,15.72
2022-12-29T12:05:17.886Z,15.02
2022-12-29T12:07:47.161Z,15.35
2022-12-29T12:10:19.282Z,16.77
2022-12-29T12:12:49.595Z,16.11
2022-12-29T12:15:19.599Z,16.11
2022-12-29T12:18:03.599Z,16.42
2022-12-29T12:20:47.062Z,16.02
2022-12-29T12:23:19.945Z,15.77
2022-12-29T12:25:51.312Z,15.72
2022-12-29T12:28:36.311Z,15.89
2022-12-29T12:31:07.990Z,15.36
2022-12-29T12:33:43.182Z,15.43
2022-12-29T12:36:16.440Z,15.60
2022-12-29T12:38:55.045Z,15.74
2022-12-29T12:41:40.375Z,15.67
2022-12-29T12:44:18.937Z,16.08
2022-12-29T12:47:05.491Z,16.17
2022-12-29T12:49:41.122Z,15.34
2022-12-29T12:52:10.555Z,15.66
2022-12-29T12:54:52.746Z,15.81
2022-12-29T12:57:37.480Z,15.27
2022-12-29T13:00:10.287Z,15.88
2022-12-29T13:02:52.048Z,15.56
2022-12-29T13:05:51.026Z,15.31
2022-12-29T13:08:29.396Z,14.92
2022-12-29T13:11:10.908Z,15.64
2022-12-29T13:13:40.374Z,15.78
2022-12-29T13:16:14.629Z,15.88
2022-12-29T13:19:00.339Z,16.02
2022-12-29T13:21:35.532Z,16.14
2022-12-29T13:24:22.062Z,15.71
2022-12-29T13:26:51.598Z,15.93
2022-12-29T13:29:21.266Z,15.45
2022-12-29T13:31:47.732Z,15.81
2022-12-29T13:34:14.151Z,15.54
2022-12-29T13:36:45.714Z,15.28
2022-12-29T13:39:21.297Z,16.00
2022-12-29T13:41:58.227Z,16.54
2022-12-29T13:44:28.033Z,15.23
2022-12-29T13:46:57.314Z,15.16
2022-12-29T13:49:27.238Z,15.25
2022-12-29T13:52:05.729Z,15.63
2022-12-29T13:54:43.841Z,15.62
2022-12-29T13:57:29.048Z,16.04
2022-12-29T14:00:00.639Z,14.68
2022-12-29T14:02:45.951Z,15.21
2022-12-29T14:05:21.882Z,14.78
2022-12-29T14:07:49.125Z,14.55
2022-12-29T14:10:30.043Z,14.65
2022-12-29T14:13:05.539Z,14.20
2022-12-29T14:15:32.419Z,14.51
2022-12-29T14:18:25.231Z,14.20
2022-12-29T14:20:56.645Z,14.75
2022-12-29T14:23:35.111Z,14.03
2022-12-29T14:26:07.459Z,13.84
2022-12-29T14:28:38.356Z,14.12
2022-12-29T14:31:05.723Z,14.33
2022-12-29T14:33:33.845Z,14.29
2022-12-29T14:36:39.498Z,14.49
2022-12-29T14:39:25.905Z,13.72
2022-12-29T14:42:04.193Z,14.43
2022-12-29T14:44:31.079Z,14.27
2022-12-29T14:46:57.651Z,14.46
2022-12-29T14:49:26.550Z,14.32
2022-12-29T14:51:54.828Z,14.57
2022-12-29T14:54:39.601Z,14.01
2022-12-29T14:57:08.357Z,14.64
2022-12-29T14:59:36.324Z,14.09
2022-12-29T15:02:06.131Z,13.45
2022-12-29T15:04:34.135Z,13.75
2022-12-29T15:07:01.302Z,14.69
2022-12-29T15:09:34.756Z,14.09
2022-12-29T15:12:20.496Z,14.48
2022-12-29T15:14:51.352Z,14.24
2022-12-29T15:17:23.924Z,13.64
2022-12-29T15:19:50.341Z,13.77
2022-12-29T15:22:17.005Z,14.13
2022-12-29T15:24:44.331Z,13.74
2022-12-29T15:27:13.949Z,14.10
2022-12-29T15:29:45.200Z,14.39
2022-12-29T15:32:22.540Z,14.46
2022-12-29T15:34:50.781Z,14.82
2022-12-29T15:37:22.235Z,14.48
2022-12-29T15:39:50.485Z,14.63
2022-12-29T15:42:27.888Z,14.62
2022-12-29T15:44:58.178Z,14.48
2022-12-29T15:47:35.797Z,14.75
2022-12-29T15:50:06.996Z,13.74
2022-12-29T15:52:34.433Z,14.21
2022-12-29T15:55:02.195Z,13.93
2022-12-29T15:57:30.678Z,13.75
2022-12-29T15:59:57.125Z,14.04
2022-12-29T16:02:24.510Z,13.67
2022-12-29T16:05:16.614Z,13.86
2022-12-29T16:07:41.913Z,14.25
2022-12-29T16:10:25.881Z,14.20
2022-12-29T16:12:52.328Z,14.47
2022-12-29T16:15:19.153Z,14.06
2022-12-29T16:17:51.650Z,14.15
2022-12-29T16:20:20.320Z,13.85
2022-12-29T16:22:49.342Z,14.28
2022-12-29T16:25:27.355Z,14.15
2022-12-29T16:27:54.181Z,14.24
2022-12-29T16:30:27.914Z,14.14
2022-12-29T16:33:01.715Z,14.00
2022-12-29T16:35:31.982Z,14.16
2022-12-29T16:38:07.879Z,14.40
2022-12-29T16:40:34.205Z,14.20
2022-12-29T16:43:05.174Z,14.37
2022-12-29T16:45:46.796Z,14.51
2022-12-29T16:48:16.187Z,14.64
2022-12-29T16:50:43.807Z,14.53
2022-12-29T16:53:22.333Z,14.33
2022-12-29T16:55:49.415Z,14.20
2022-12-29T16:58:22.382Z,14.33
2022-12-29T17:00:49.013Z,14.38
2022-12-29T17:03:16.441Z,14.26
2022-12-29T17:05:42.927Z,14.58
2022-12-29T17:08:23.953Z,14.31
2022-12-29T17:11:14.092Z,14.28
2022-12-29T17:13:40.630Z,14.42
2022-12-29T17:16:08.371Z,14.49
2022-12-29T17:18:35.207Z,14.29
2022-12-29T17:21:03.016Z,14.39
2022-12-29T17:23:31.405Z,14.44
2022-12-29T17:25:58.047Z,14.08
2022-12-29T17:28:30.541Z,14.08
2022-12-29T17:31:00.988Z,14.40
2022-12-29T17:33:28.521Z,14.11
2022-12-29T17:35:55.868Z,14.04
2022-12-29T17:38:30.015Z,14.05
2022-12-29T17:40:56.874Z,13.72
2022-12-29T17:43:23.474Z,14.22
2022-12-29T17:45:53.885Z,14.16
2022-12-29T17:48:20.381Z,14.08
2022-12-29T17:50:48.081Z,13.61
2022-12-29T17:53:15.616Z,13.95
2022-12-29T17:55:41.997Z,14.12
2022-12-29T17:58:14.975Z,14.50
2022-12-29T18:00:41.514Z,13.51
2022-12-29T18:03:09.302Z,13.23
2022-12-29T18:05:35.769Z,13.42
2022-12-29T18:08:02.479Z,13.57
2022-12-29T18:10:30.698Z,13.99
2022-12-29T18:12:59.408Z,14.53
2022-12-29T18:15:27.343Z,14.19
2022-12-29T18:18:10.147Z,14.48
2022-12-29T18:20:36.716Z,14.78
2022-12-29T18:23:03.215Z,14.87
2022-12-29T18:25:35.616Z,14.81
2022-12-29T18:28:02.008Z,15.08
2022-12-29T18:30:28.632Z,14.59
2022-12-29T18:32:55.493Z,14.18
2022-12-29T18:35:42.714Z,13.53
2022-12-29T18:38:09.139Z,13.97
2022-12-29T18:40:36.549Z,13.77
2022-12-29T18:43:03.179Z,14.22
2022-12-29T18:45:31.413Z,14.29
2022-12-29T18:47:58.357Z,13.70
2022-12-29T18:50:24.820Z,13.91
2022-12-29T18:52:51.513Z,13.77
2022-12-29T18:55:20.755Z,14.26
2022-12-29T18:57:48.679Z,14.16
2022-12-29T19:00:17.042Z,14.45
2022-12-29T19:02:43.976Z,14.44
2022-12-29T19:05:19.557Z,14.21
2022-12-29T19:07:48.036Z,14.09
2022-12-29T19:10:14.773Z,14.37
2022-12-29T19:12:41.385Z,14.43
2022-12-29T19:15:13.525Z,14.70
2022-12-29T19:17:39.955Z,14.54
2022-12-29T19:20:07.217Z,14.84
2022-12-29T19:22:33.553Z,14.45
2022-12-29T19:25:00.485Z,15.18
2022-12-29T19:27:27.257Z,14.74
2022-12-29T19:29:53.601Z,14.81
2022-12-29T19:32:20.075Z,14.88
2022-12-29T19:34:48.721Z,15.17
2022-12-29T19:37:15.175Z,14.99
2022-12-29T19:39:41.649Z,15.03
2022-12-29T19:42:08.098Z,15.43
2022-12-29T19:44:34.662Z,15.37
2022-12-29T19:47:01.165Z,14.98
2022-12-29T19:49:27.849Z,15.08
2022-12-29T19:51:55.291Z,15.28
2022-12-29T19:54:22.001Z,14.76
2022-12-29T19:56:50.612Z,15.01
2022-12-29T19:59:17.689Z,14.99
2022-12-29T20:01:44.518Z,15.59
2022-12-29T20:04:13.312Z,15.99
2022-12-29T20:06:39.724Z,15.37
2022-12-29T20:09:06.397Z,15.16
2022-12-29T20:11:34.060Z,15.34
2022-12-29T20:14:02.249Z,14.07
2022-12-29T20:16:31.108Z,14.94
2022-12-29T20:18:57.783Z,13.93
2022-12-29T20:21:24.595Z,13.04
2022-12-29T20:23:52.680Z,13.47
2022-12-29T20:26:21.169Z,13.80
2022-12-29T20:28:48.163Z,13.98
2022-12-29T20:31:19.502Z,14.27
2022-12-29T20:33:46.617Z,14.00
2022-12-29T20:36:24.635Z,13.87
2022-12-29T20:38:51.717Z,14.39
2022-12-29T20:41:18.249Z,13.40
2022-12-29T20:43:46.225Z,12.98
2022-12-29T20:46:18.159Z,12.83
2022-12-29T20:48:47.785Z,13.25
2022-12-29T20:51:15.070Z,13.63
2022-12-29T20:53:41.775Z,12.79
2022-12-29T20:56:11.551Z,13.41
2022-12-29T20:59:00.304Z,12.52
2022-12-29T21:01:25.252Z,13.95
2022-12-29T21:03:51.804Z,13.38
2022-12-29T21:06:23.004Z,12.91
2022-12-29T21:08:50.400Z,13.49
2022-12-29T21:11:22.364Z,13.55
2022-12-29T21:13:49.804Z,14.00
2022-12-29T21:16:18.799Z,14.20
2022-12-29T21:18:46.155Z,13.22
2022-12-29T21:21:15.504Z,13.25
2022-12-29T21:23:42.103Z,13.43
2022-12-29T21:26:24.397Z,13.54
2022-12-29T21:28:51.509Z,13.04
2022-12-29T21:31:24.325Z,13.43
2022-12-29T21:33:51.514Z,12.62
2022-12-29T21:36:27.012Z,12.58
2022-12-29T21:38:53.973Z,13.21
2022-12-29T21:41:21.922Z,13.03
2022-12-29T21:44:08.374Z,13.23
2022-12-29T21:46:37.556Z,11.65
2022-12-29T21:49:04.987Z,12.55
2022-12-29T21:51:50.422Z,13.06
2022-12-29T21:54:38.229Z,12.35
2022-12-29T21:57:05.379Z,12.57
2022-12-29T21:59:50.860Z,12.92
2022-12-29T22:02:43.456Z,13.02
2022-12-29T22:05:30.391Z,12.77
2022-12-29T22:08:15.409Z,13.28
2022-12-29T22:11:02.708Z,12.17
2022-12-29T22:13:33.444Z,11.88
2022-12-29T22:16:00.302Z,11.88
2022-12-29T22:18:27.564Z,12.66
2022-12-29T22:20:54.807Z,12.74
2022-12-29T22:23:25.552Z,12.97
2022-12-29T22:25:52.541Z,12.83
2022-12-29T22:28:19.940Z,12.80
2022-12-29T22:30:47.095Z,12.02
2022-12-29T22:33:14.120Z,12.47
2022-12-29T22:35:41.443Z,12.32
2022-12-29T22:38:08.447Z,12.58
2022-12-29T22:40:36.095Z,12.81
2022-12-29T22:43:07.993Z,12.27
2022-12-29T22:45:38.953Z,13.34
2022-12-29T22:48:05.969Z,13.25
2022-12-29T22:50:33.178Z,12.65
2022-12-29T22:52:59.968Z,12.71
2022-12-29T22:55:26.648Z,12.19
2022-12-29T22:57:55.581Z,12.29
2022-12-29T23:00:22.609Z,12.68
2022-12-29T23:02:49.478Z,12.50
2022-12-29T23:05:16.306Z,12.32
2022-12-29T23:07:43.531Z,12.62
2022-12-29T23:10:10.107Z,12.78
2022-12-29T23:12:36.595Z,12.75
2022-12-29T23:15:03.081Z,12.49
2022-12-29T23:17:29.973Z,12.83
2022-12-29T23:19:56.353Z,12.04
2022-12-29T23:22:23.314Z,12.49
2022-12-29T23:24:49.622Z,12.80
2022-12-29T23:27:15.959Z,12.96
2022-12-29T23:29:42.454Z,12.47
2022-12-29T23:32:08.982Z,12.62
2022-12-29T23:34:35.301Z,12.53
2022-12-29T23:37:01.882Z,13.05
2022-12-29T23:39:29.192Z,12.42
2022-12-29T23:41:55.550Z,12.70
2022-12-29T23:44:21.975Z,12.64
2022-12-29T23:46:48.579Z,12.47
2022-12-29T23:49:15.152Z,12.80
2022-12-29T23:51:42.005Z,12.83
2022-12-29T23:54:08.398Z,12.75
2022-12-29T23:56:34.697Z,12.94
2022-12-29T23:59:03.431Z,13.19
